TDCF/DCF METAR and TAF weather

Enter ICAO airport designator
Station Type Date Time Source
TDCF METAR 2019/04/22 18:00 UTC NOAA

TDCF 221800Z 12005KT 9999 SCT017 BKN042 27/20 Q1012 RERA


Station Type Date Time Source
TDCF Decoded METAR 2019/04/22 18:00 UTC NOAA

Canefield Airport, Dominica (TDCF) 15-32N 061-24W 5M
Apr 22, 2019 - 02:00 PM EDT / 2019.04.22 1800 UTC
Wind: from the ESE (120 degrees) at 6 MPH (5 KT):0
Visibility: greater than 7 mile(s):0
Sky conditions: mostly cloudy
Temperature: 80 F (27 C)
Dew Point: 68 F (20 C)
Relative Humidity: 65%
Pressure (altimeter): 29.88 in. Hg (1012 hPa)
ob: TDCF 221800Z 12005KT 9999 SCT017 BKN042 27/20 Q1012 RERA
cycle: 18

Station Type Date Time Source
TDCF TAF 2012/05/01 18:15 UTC NOAA

TAF TDCF 011600Z 0118/0218 110010KT 9999 SCT018 BKN030
TEMPO 0118/0206 6000 SHRA BKN014 BKN070

Example: see airport list